sensor_id;sensor_type;location;lat;lon;timestamp;pressure;altitude;pressure_sealevel;temperature;humidity
64908;BME280;64365;-1.756;110.040;2023-03-01T00:01:01;103193.66;;;2.57;75.35
64908;BME280;64365;-1.756;110.040;2023-03-01T00:03:28;103198.91;;;2.57;74.77
64908;BME280;64365;-1.756;110.040;2023-03-01T00:05:54;103205.19;;;2.56;77.44
64908;BME280;64365;-1.756;110.040;2023-03-01T00:08:21;103191.31;;;2.60;75.19
64908;BME280;64365;-1.756;110.040;2023-03-01T00:10:48;103182.81;;;2.48;78.50
64908;BME280;64365;-1.756;110.040;2023-03-01T00:13:14;103192.63;;;2.58;80.52
64908;BME280;64365;-1.756;110.040;2023-03-01T00:15:42;103189.59;;;2.71;79.13
64908;BME280;64365;-1.756;110.040;2023-03-01T00:18:09;103197.47;;;2.71;75.90
64908;BME280;64365;-1.756;110.040;2023-03-01T00:20:35;103188.75;;;2.65;78.13
64908;BME280;64365;-1.756;110.040;2023-03-01T00:23:02;103186.94;;;2.71;81.83
64908;BME280;64365;-1.756;110.040;2023-03-01T00:25:28;103191.22;;;2.82;79.67
64908;BME280;64365;-1.756;110.040;2023-03-01T00:27:55;103181.75;;;2.76;76.47
64908;BME280;64365;-1.756;110.040;2023-03-01T00:30:21;103180.69;;;2.77;79.63
64908;BME280;64365;-1.756;110.040;2023-03-01T00:32:49;103189.59;;;2.71;78.34
64908;BME280;64365;-1.756;110.040;2023-03-01T00:35:16;103180.13;;;2.70;76.62
64908;BME280;64365;-1.756;110.040;2023-03-01T00:37:42;103181.91;;;2.64;75.56
64908;BME280;64365;-1.756;110.040;2023-03-01T00:40:10;103176.09;;;2.57;75.94
64908;BME280;64365;-1.756;110.040;2023-03-01T00:42:37;103175.97;;;2.47;74.80
64908;BME280;64365;-1.756;110.040;2023-03-01T00:45:04;103170.97;;;2.45;76.45
64908;BME280;64365;-1.756;110.040;2023-03-01T00:47:31;103182.47;;;2.39;75.51
64908;BME280;64365;-1.756;110.040;2023-03-01T00:50:00;103173.75;;;2.33;74.85
64908;BME280;64365;-1.756;110.040;2023-03-01T00:52:26;103177.59;;;2.26;75.76
64908;BME280;64365;-1.756;110.040;2023-03-01T00:54:53;103178.09;;;2.23;74.63
64908;BME280;64365;-1.756;110.040;2023-03-01T00:57:20;103171.28;;;2.22;75.55
64908;BME280;64365;-1.756;110.040;2023-03-01T00:59:46;103173.44;;;2.25;77.58
64908;BME280;64365;-1.756;110.040;2023-03-01T01:02:13;103174.16;;;2.20;76.48
64908;BME280;64365;-1.756;110.040;2023-03-01T01:04:39;103161.28;;;2.18;76.57
64908;BME280;64365;-1.756;110.040;2023-03-01T01:07:07;103162.03;;;2.14;75.52
64908;BME280;64365;-1.756;110.040;2023-03-01T01:09:34;103170.69;;;2.14;76.40
64908;BME280;64365;-1.756;110.040;2023-03-01T01:12:01;103168.97;;;2.25;79.45
64908;BME280;64365;-1.756;110.040;2023-03-01T01:14:27;103152.22;;;2.31;80.55
64908;BME280;64365;-1.756;110.040;2023-03-01T01:16:54;103154.09;;;2.36;81.21
64908;BME280;64365;-1.756;110.040;2023-03-01T01:19:21;103143.03;;;2.34;81.63
64908;BME280;64365;-1.756;110.040;2023-03-01T01:21:47;103144.78;;;2.50;82.90
64908;BME280;64365;-1.756;110.040;2023-03-01T01:24:16;103132.41;;;2.46;77.28
64908;BME280;64365;-1.756;110.040;2023-03-01T01:26:43;103141.50;;;2.38;77.39
64908;BME280;64365;-1.756;110.040;2023-03-01T01:29:11;103143.28;;;2.32;75.48
64908;BME280;64365;-1.756;110.040;2023-03-01T01:31:39;103139.06;;;2.26;75.58
64908;BME280;64365;-1.756;110.040;2023-03-01T01:34:09;103128.97;;;2.13;74.61
64908;BME280;64365;-1.756;110.040;2023-03-01T01:36:38;103135.50;;;2.10;77.57
64908;BME280;64365;-1.756;110.040;2023-03-01T01:39:05;103127.94;;;2.14;77.91
64908;BME280;64365;-1.756;110.040;2023-03-01T01:41:33;103134.22;;;2.13;77.76
64908;BME280;64365;-1.756;110.040;2023-03-01T01:44:12;103136.47;;;2.04;75.25
64908;BME280;64365;-1.756;110.040;2023-03-01T01:46:40;103133.50;;;1.95;74.85
64908;BME280;64365;-1.756;110.040;2023-03-01T01:49:17;103130.81;;;1.90;74.11
64908;BME280;64365;-1.756;110.040;2023-03-01T01:51:47;103124.50;;;1.86;73.79
64908;BME280;64365;-1.756;110.040;2023-03-01T01:54:18;103112.66;;;1.83;75.22
64908;BME280;64365;-1.756;110.040;2023-03-01T01:56:50;103127.63;;;1.83;79.01
64908;BME280;64365;-1.756;110.040;2023-03-01T01:59:18;103125.72;;;1.78;79.53
64908;BME280;64365;-1.756;110.040;2023-03-01T02:01:49;103122.44;;;1.88;78.09
64908;BME280;64365;-1.756;110.040;2023-03-01T02:04:16;103123.53;;;1.97;80.57
64908;BME280;64365;-1.756;110.040;2023-03-01T02:06:48;103126.66;;;1.94;79.38
64908;BME280;64365;-1.756;110.040;2023-03-01T02:09:18;103119.56;;;1.90;76.56
64908;BME280;64365;-1.756;110.040;2023-03-01T02:11:47;103117.38;;;1.81;75.21
64908;BME280;64365;-1.756;110.040;2023-03-01T02:14:15;103113.09;;;1.75;75.67
64908;BME280;64365;-1.756;110.040;2023-03-01T02:16:41;103112.59;;;1.78;76.54
64908;BME280;64365;-1.756;110.040;2023-03-01T02:19:14;103110.66;;;1.68;77.48
64908;BME280;64365;-1.756;110.040;2023-03-01T02:21:47;103108.63;;;1.76;78.05
64908;BME280;64365;-1.756;110.040;2023-03-01T02:24:26;103110.72;;;1.74;78.76
64908;BME280;64365;-1.756;110.040;2023-03-01T02:26:57;103109.38;;;1.71;74.78
64908;BME280;64365;-1.756;110.040;2023-03-01T02:29:26;103109.81;;;1.63;73.22
64908;BME280;64365;-1.756;110.040;2023-03-01T02:31:56;103113.97;;;1.59;74.18
64908;BME280;64365;-1.756;110.040;2023-03-01T02:34:24;103117.31;;;1.54;74.01
64908;BME280;64365;-1.756;110.040;2023-03-01T02:36:55;103102.81;;;1.46;73.97
64908;BME280;64365;-1.756;110.040;2023-03-01T02:39:25;103103.97;;;1.56;81.71
64908;BME280;64365;-1.756;110.040;2023-03-01T02:41:54;103096.81;;;1.73;81.49
64908;BME280;64365;-1.756;110.040;2023-03-01T02:44:23;103093.16;;;1.74;79.14
64908;BME280;64365;-1.756;110.040;2023-03-01T02:46:52;103087.38;;;1.72;78.61
64908;BME280;64365;-1.756;110.040;2023-03-01T02:49:22;103093.72;;;1.76;80.74
64908;BME280;64365;-1.756;110.040;2023-03-01T02:54:41;103077.19;;;1.76;75.10
64908;BME280;64365;-1.756;110.040;2023-03-01T02:57:10;103087.31;;;1.67;75.23
64908;BME280;64365;-1.756;110.040;2023-03-01T02:59:38;103086.41;;;1.56;74.74
64908;BME280;64365;-1.756;110.040;2023-03-01T03:02:07;103081.59;;;1.48;74.35
64908;BME280;64365;-1.756;110.040;2023-03-01T03:04:34;103081.47;;;1.38;74.29
64908;BME280;64365;-1.756;110.040;2023-03-01T03:07:01;103077.63;;;1.45;79.50
64908;BME280;64365;-1.756;110.040;2023-03-01T03:09:27;103080.25;;;1.45;75.70
64908;BME280;64365;-1.756;110.040;2023-03-01T03:11:54;103065.25;;;1.41;74.63
64908;BME280;64365;-1.756;110.040;2023-03-01T03:14:21;103076.22;;;1.38;75.61
64908;BME280;64365;-1.756;110.040;2023-03-01T03:16:49;103075.56;;;1.47;80.06
64908;BME280;64365;-1.756;110.040;2023-03-01T03:19:18;103070.38;;;1.52;82.15
64908;BME280;64365;-1.756;110.040;2023-03-01T03:21:45;103052.03;;;1.52;80.43
64908;BME280;64365;-1.756;110.040;2023-03-01T03:24:11;103065.97;;;1.58;78.25
64908;BME280;64365;-1.756;110.040;2023-03-01T03:26:38;103058.63;;;1.55;75.73
64908;BME280;64365;-1.756;110.040;2023-03-01T03:29:04;103059.84;;;1.47;75.25
64908;BME280;64365;-1.756;110.040;2023-03-01T03:31:31;103059.06;;;1.47;78.98
64908;BME280;64365;-1.756;110.040;2023-03-01T03:33:57;103058.28;;;1.46;78.08
64908;BME280;64365;-1.756;110.040;2023-03-01T03:36:26;103052.47;;;1.44;74.33
64908;BME280;64365;-1.756;110.040;2023-03-01T03:38:52;103044.00;;;1.37;73.77
64908;BME280;64365;-1.756;110.040;2023-03-01T03:41:19;103043.63;;;1.28;73.90
64908;BME280;64365;-1.756;110.040;2023-03-01T03:43:45;103045.66;;;1.21;73.97
64908;BME280;64365;-1.756;110.040;2023-03-01T03:46:12;103041.94;;;1.17;76.55
64908;BME280;64365;-1.756;110.040;2023-03-01T03:48:41;103037.44;;;1.12;76.76
64908;BME280;64365;-1.756;110.040;2023-03-01T03:51:10;103035.59;;;1.13;74.50
64908;BME280;64365;-1.756;110.040;2023-03-01T03:53:38;103047.72;;;1.19;75.02
64908;BME280;64365;-1.756;110.040;2023-03-01T03:56:06;103042.13;;;1.10;73.91
64908;BME280;64365;-1.756;110.040;2023-03-01T03:58:33;103045.69;;;1.04;74.82
64908;BME280;64365;-1.756;110.040;2023-03-01T04:00:59;103045.41;;;1.00;73.87
64908;BME280;64365;-1.756;110.040;2023-03-01T04:03:29;103042.22;;;0.98;75.33
64908;BME280;64365;-1.756;110.040;2023-03-01T04:05:57;103042.16;;;0.93;75.12
64908;BME280;64365;-1.756;110.040;2023-03-01T04:08:24;103036.19;;;0.98;77.79
64908;BME280;64365;-1.756;110.040;2023-03-01T04:10:57;103036.81;;;1.05;76.24
64908;BME280;64365;-1.756;110.040;2023-03-01T04:13:24;103047.53;;;1.04;74.28
64908;BME280;64365;-1.756;110.040;2023-03-01T04:15:52;103041.75;;;1.02;74.33
64908;BME280;64365;-1.756;110.040;2023-03-01T04:18:20;103043.25;;;0.97;74.41
64908;BME280;64365;-1.756;110.040;2023-03-01T04:20:47;103042.41;;;0.92;74.88
64908;BME280;64365;-1.756;110.040;2023-03-01T04:23:15;103041.00;;;0.84;73.37
64908;BME280;64365;-1.756;110.040;2023-03-01T04:25:46;103039.69;;;0.87;78.36
64908;BME280;64365;-1.756;110.040;2023-03-01T04:28:20;103035.53;;;0.86;75.62
64908;BME280;64365;-1.756;110.040;2023-03-01T04:30:47;103029.19;;;0.81;74.82
64908;BME280;64365;-1.756;110.040;2023-03-01T04:33:14;103041.47;;;0.81;74.80
64908;BME280;64365;-1.756;110.040;2023-03-01T04:35:40;103040.94;;;0.79;73.62
64908;BME280;64365;-1.756;110.040;2023-03-01T04:38:07;103036.41;;;0.74;74.18
64908;BME280;64365;-1.756;110.040;2023-03-01T04:40:35;103028.78;;;0.73;75.24
64908;BME280;64365;-1.756;110.040;2023-03-01T04:43:03;103025.38;;;0.72;76.49
64908;BME280;64365;-1.756;110.040;2023-03-01T04:45:31;103034.03;;;0.73;73.58
64908;BME280;64365;-1.756;110.040;2023-03-01T04:47:59;103025.38;;;0.72;76.09
64908;BME280;64365;-1.756;110.040;2023-03-01T04:50:26;103028.53;;;0.74;74.71
64908;BME280;64365;-1.756;110.040;2023-03-01T04:52:53;103030.63;;;0.72;73.90
64908;BME280;64365;-1.756;110.040;2023-03-01T04:55:19;103031.13;;;0.69;73.76
64908;BME280;64365;-1.756;110.040;2023-03-01T04:57:46;103032.44;;;0.72;76.10
64908;BME280;64365;-1.756;110.040;2023-03-01T05:00:14;103021.97;;;0.72;74.64
64908;BME280;64365;-1.756;110.040;2023-03-01T05:02:50;103023.06;;;0.76;80.37
64908;BME280;64365;-1.756;110.040;2023-03-01T05:05:19;103022.13;;;0.82;79.83
64908;BME280;64365;-1.756;110.040;2023-03-01T05:07:47;103014.44;;;0.97;82.98
64908;BME280;64365;-1.756;110.040;2023-03-01T05:10:14;103020.84;;;1.07;82.30
64908;BME280;64365;-1.756;110.040;2023-03-01T05:12:41;103002.50;;;1.07;78.45
64908;BME280;64365;-1.756;110.040;2023-03-01T05:15:08;103003.69;;;0.94;75.12
64908;BME280;64365;-1.756;110.040;2023-03-01T05:17:35;103010.38;;;0.84;74.58
64908;BME280;64365;-1.756;110.040;2023-03-01T05:20:03;103006.09;;;0.78;74.28
64908;BME280;64365;-1.756;110.040;2023-03-01T05:22:33;102995.78;;;0.72;74.98
64908;BME280;64365;-1.756;110.040;2023-03-01T05:25:00;102995.66;;;0.61;75.19
64908;BME280;64365;-1.756;110.040;2023-03-01T05:27:27;102992.03;;;0.62;75.67
64908;BME280;64365;-1.756;110.040;2023-03-01T05:29:54;102992.25;;;0.61;77.79
64908;BME280;64365;-1.756;110.040;2023-03-01T05:32:21;102987.00;;;0.61;76.64
64908;BME280;64365;-1.756;110.040;2023-03-01T05:34:47;102980.13;;;0.55;74.25
64908;BME280;64365;-1.756;110.040;2023-03-01T05:37:15;102979.03;;;0.50;74.01
64908;BME280;64365;-1.756;110.040;2023-03-01T05:39:42;102973.25;;;0.48;74.28
64908;BME280;64365;-1.756;110.040;2023-03-01T05:42:10;102976.34;;;0.45;73.97
64908;BME280;64365;-1.756;110.040;2023-03-01T05:44:38;102965.88;;;0.45;76.19
64908;BME280;64365;-1.756;110.040;2023-03-01T05:47:04;102966.81;;;0.56;75.11
64908;BME280;64365;-1.756;110.040;2023-03-01T05:49:31;102966.03;;;0.56;74.95
64908;BME280;64365;-1.756;110.040;2023-03-01T05:51:58;102956.59;;;0.55;74.38
64908;BME280;64365;-1.756;110.040;2023-03-01T05:54:26;102966.31;;;0.59;75.71
64908;BME280;64365;-1.756;110.040;2023-03-01T05:56:53;102964.03;;;0.63;75.62
64908;BME280;64365;-1.756;110.040;2023-03-01T05:59:19;102960.84;;;0.61;73.63
64908;BME280;64365;-1.756;110.040;2023-03-01T06:01:46;102957.69;;;0.59;73.08
64908;BME280;64365;-1.756;110.040;2023-03-01T06:04:12;102957.38;;;0.55;71.62
64908;BME280;64365;-1.756;110.040;2023-03-01T06:06:39;102959.22;;;0.55;74.52
64908;BME280;64365;-1.756;110.040;2023-03-01T06:09:06;102960.31;;;0.59;74.32
64908;BME280;64365;-1.756;110.040;2023-03-01T06:11:36;102960.97;;;0.71;79.17
64908;BME280;64365;-1.756;110.040;2023-03-01T06:14:03;102962.06;;;0.97;80.57
64908;BME280;64365;-1.756;110.040;2023-03-01T06:16:31;102957.09;;;1.18;78.18
64908;BME280;64365;-1.756;110.040;2023-03-01T06:18:58;102962.16;;;1.25;77.03
64908;BME280;64365;-1.756;110.040;2023-03-01T06:21:24;102953.13;;;1.15;71.87
64908;BME280;64365;-1.756;110.040;2023-03-01T06:23:51;102957.47;;;1.05;71.01
64908;BME280;64365;-1.756;110.040;2023-03-01T06:26:18;102968.63;;;0.95;70.89
64908;BME280;64365;-1.756;110.040;2023-03-01T06:28:46;102965.63;;;0.86;71.37
64908;BME280;64365;-1.756;110.040;2023-03-01T06:31:12;102965.38;;;0.88;73.18
64908;BME280;64365;-1.756;110.040;2023-03-01T06:33:39;102961.16;;;0.87;75.46
64908;BME280;64365;-1.756;110.040;2023-03-01T06:36:07;102971.63;;;0.87;72.66
64908;BME280;64365;-1.756;110.040;2023-03-01T06:38:34;102955.56;;;0.78;71.92
64908;BME280;64365;-1.756;110.040;2023-03-01T06:41:01;102972.94;;;0.84;75.62
64908;BME280;64365;-1.756;110.040;2023-03-01T06:43:27;102968.00;;;0.88;75.49
64908;BME280;64365;-1.756;110.040;2023-03-01T06:45:55;102966.19;;;0.88;72.71
64908;BME280;64365;-1.756;110.040;2023-03-01T06:48:22;102977.69;;;0.87;74.28
64908;BME280;64365;-1.756;110.040;2023-03-01T06:50:48;102967.91;;;0.82;72.50
64908;BME280;64365;-1.756;110.040;2023-03-01T06:53:15;102978.38;;;0.82;72.35
64908;BME280;64365;-1.756;110.040;2023-03-01T06:55:42;102982.59;;;0.83;72.26
64908;BME280;64365;-1.756;110.040;2023-03-01T06:58:09;102975.78;;;0.82;72.15
64908;BME280;64365;-1.756;110.040;2023-03-01T07:00:36;102977.69;;;0.87;75.16
64908;BME280;64365;-1.756;110.040;2023-03-01T07:03:04;102979.81;;;0.90;75.75
64908;BME280;64365;-1.756;110.040;2023-03-01T07:05:30;102971.84;;;1.02;73.42
64908;BME280;64365;-1.756;110.040;2023-03-01T07:07:57;102978.16;;;1.06;73.17
64908;BME280;64365;-1.756;110.040;2023-03-01T07:10:24;102970.31;;;1.06;71.71
64908;BME280;64365;-1.756;110.040;2023-03-01T07:12:54;102966.41;;;1.09;73.64
64908;BME280;64365;-1.756;110.040;2023-03-01T07:15:20;102982.53;;;1.23;73.52
64908;BME280;64365;-1.756;110.040;2023-03-01T07:17:47;102977.59;;;1.26;72.31
64908;BME280;64365;-1.756;110.040;2023-03-01T07:20:18;102979.84;;;1.40;73.77
64908;BME280;64365;-1.756;110.040;2023-03-01T07:22:47;102979.59;;;1.68;74.74
64908;BME280;64365;-1.756;110.040;2023-03-01T07:25:14;102977.53;;;2.03;71.54
64908;BME280;64365;-1.756;110.040;2023-03-01T07:27:40;102979.19;;;2.14;69.95
64908;BME280;64365;-1.756;110.040;2023-03-01T07:30:08;102994.72;;;2.21;68.91
64908;BME280;64365;-1.756;110.040;2023-03-01T07:32:35;102977.75;;;2.39;70.95
64908;BME280;64365;-1.756;110.040;2023-03-01T07:35:02;102980.50;;;2.60;71.54
64908;BME280;64365;-1.756;110.040;2023-03-01T07:37:30;102991.41;;;2.89;70.13
64908;BME280;64365;-1.756;110.040;2023-03-01T07:39:57;102976.53;;;3.15;70.69
64908;BME280;64365;-1.756;110.040;2023-03-01T07:42:23;102975.03;;;3.45;72.85
64908;BME280;64365;-1.756;110.040;2023-03-01T07:44:50;102981.38;;;3.54;69.05
64908;BME280;64365;-1.756;110.040;2023-03-01T07:47:16;102966.63;;;3.64;67.65
64908;BME280;64365;-1.756;110.040;2023-03-01T07:49:43;102972.97;;;3.78;66.73
64908;BME280;64365;-1.756;110.040;2023-03-01T07:52:11;102982.94;;;3.81;65.93
64908;BME280;64365;-1.756;110.040;2023-03-01T07:54:39;102982.94;;;3.86;66.05
64908;BME280;64365;-1.756;110.040;2023-03-01T07:57:05;102976.63;;;4.03;67.57
64908;BME280;64365;-1.756;110.040;2023-03-01T07:59:32;102977.41;;;4.14;65.88
64908;BME280;64365;-1.756;110.040;2023-03-01T08:01:59;102981.31;;;4.37;65.58
64908;BME280;64365;-1.756;110.040;2023-03-01T08:04:25;102967.56;;;4.61;65.27
64908;BME280;64365;-1.756;110.040;2023-03-01T08:06:52;102974.06;;;4.84;64.75
64908;BME280;64365;-1.756;110.040;2023-03-01T08:09:18;102981.56;;;5.11;65.01
64908;BME280;64365;-1.756;110.040;2023-03-01T08:11:46;102976.72;;;5.34;63.25
64908;BME280;64365;-1.756;110.040;2023-03-01T08:14:13;102972.53;;;5.67;63.66
64908;BME280;64365;-1.756;110.040;2023-03-01T08:16:39;102979.44;;;5.98;62.55
64908;BME280;64365;-1.756;110.040;2023-03-01T08:19:07;102974.84;;;6.38;61.80
64908;BME280;64365;-1.756;110.040;2023-03-01T08:21:34;102970.81;;;6.89;61.65
64908;BME280;64365;-1.756;110.040;2023-03-01T08:24:01;102979.25;;;7.48;59.10
64908;BME280;64365;-1.756;110.040;2023-03-01T08:26:28;102974.50;;;8.11;58.06
64908;BME280;64365;-1.756;110.040;2023-03-01T08:28:56;102970.44;;;8.61;56.06
64908;BME280;64365;-1.756;110.040;2023-03-01T08:31:24;102974.72;;;9.21;55.10
64908;BME280;64365;-1.756;110.040;2023-03-01T08:33:54;102969.06;;;9.59;53.47
64908;BME280;64365;-1.756;110.040;2023-03-01T08:36:22;102959.38;;;9.86;51.46
64908;BME280;64365;-1.756;110.040;2023-03-01T08:38:49;102973.91;;;10.20;50.59
64908;BME280;64365;-1.756;110.040;2023-03-01T08:41:16;102965.63;;;10.53;49.48
64908;BME280;64365;-1.756;110.040;2023-03-01T08:43:42;102955.97;;;10.74;47.24
64908;BME280;64365;-1.756;110.040;2023-03-01T08:46:11;102952.19;;;10.93;48.42
64908;BME280;64365;-1.756;110.040;2023-03-01T08:48:38;102954.38;;;11.17;47.81
64908;BME280;64365;-1.756;110.040;2023-03-01T08:51:11;102955.00;;;11.32;48.71
64908;BME280;64365;-1.756;110.040;2023-03-01T08:53:41;102941.81;;;11.53;49.16
64908;BME280;64365;-1.756;110.040;2023-03-01T08:56:09;102954.75;;;11.80;45.75
64908;BME280;64365;-1.756;110.040;2023-03-01T08:58:36;102959.41;;;11.92;45.16
64908;BME280;64365;-1.756;110.040;2023-03-01T09:01:06;102951.56;;;12.05;44.26
64908;BME280;64365;-1.756;110.040;2023-03-01T09:03:35;102949.91;;;12.21;46.14
64908;BME280;64365;-1.756;110.040;2023-03-01T09:06:03;102948.13;;;12.34;44.04
64908;BME280;64365;-1.756;110.040;2023-03-01T09:08:31;102949.97;;;12.42;44.02
64908;BME280;64365;-1.756;110.040;2023-03-01T09:11:01;102943.13;;;12.54;42.23
64908;BME280;64365;-1.756;110.040;2023-03-01T09:13:28;102939.03;;;12.56;42.89
64908;BME280;64365;-1.756;110.040;2023-03-01T09:15:56;102932.47;;;12.75;41.98
64908;BME280;64365;-1.756;110.040;2023-03-01T09:18:23;102928.25;;;12.74;41.79
64908;BME280;64365;-1.756;110.040;2023-03-01T09:20:51;102924.72;;;12.82;40.57
64908;BME280;64365;-1.756;110.040;2023-03-01T09:23:20;102924.28;;;12.80;42.37
64908;BME280;64365;-1.756;110.040;2023-03-01T09:25:47;102921.22;;;12.90;41.56
64908;BME280;64365;-1.756;110.040;2023-03-01T09:28:13;102917.69;;;12.98;41.35
64908;BME280;64365;-1.756;110.040;2023-03-01T09:30:40;102909.81;;;13.02;40.30
64908;BME280;64365;-1.756;110.040;2023-03-01T09:33:06;102918.22;;;13.25;41.40
64908;BME280;64365;-1.756;110.040;2023-03-01T09:35:39;102918.06;;;13.43;41.38
64908;BME280;64365;-1.756;110.040;2023-03-01T09:38:18;102915.53;;;13.46;42.11
64908;BME280;64365;-1.756;110.040;2023-03-01T09:40:45;102914.78;;;13.71;41.04
64908;BME280;64365;-1.756;110.040;2023-03-01T09:43:20;102914.13;;;13.74;37.77
64908;BME280;64365;-1.756;110.040;2023-03-01T09:45:50;102924.47;;;13.75;38.21
64908;BME280;64365;-1.756;110.040;2023-03-01T09:48:21;102922.91;;;13.87;38.07
64908;BME280;64365;-1.756;110.040;2023-03-01T09:50:50;102922.13;;;13.86;40.06
64908;BME280;64365;-1.756;110.040;2023-03-01T09:53:21;102923.16;;;13.94;38.10
64908;BME280;64365;-1.756;110.040;2023-03-01T09:55:51;102916.56;;;14.04;39.52
64908;BME280;64365;-1.756;110.040;2023-03-01T09:58:34;102920.34;;;14.15;36.92
64908;BME280;64365;-1.756;110.040;2023-03-01T10:01:15;102925.94;;;14.22;40.46
64908;BME280;64365;-1.756;110.040;2023-03-01T10:03:58;102917.88;;;14.35;40.39
64908;BME280;64365;-1.756;110.040;2023-03-01T10:06:28;102909.38;;;14.45;37.14
64908;BME280;64365;-1.756;110.040;2023-03-01T10:08:57;102916.97;;;14.43;36.43
64908;BME280;64365;-1.756;110.040;2023-03-01T10:11:28;102905.06;;;14.28;35.78
64908;BME280;64365;-1.756;110.040;2023-03-01T10:14:00;102910.97;;;14.34;36.66
64908;BME280;64365;-1.756;110.040;2023-03-01T10:16:37;102919.66;;;14.43;37.00
64908;BME280;64365;-1.756;110.040;2023-03-01T10:19:06;102907.16;;;14.47;36.31
64908;BME280;64365;-1.756;110.040;2023-03-01T10:21:41;102918.31;;;14.37;37.65
64908;BME280;64365;-1.756;110.040;2023-03-01T10:24:13;102906.59;;;14.41;36.64
64908;BME280;64365;-1.756;110.040;2023-03-01T10:26:48;102903.13;;;14.41;35.49
64908;BME280;64365;-1.756;110.040;2023-03-01T10:29:18;102896.47;;;14.35;36.44
64908;BME280;64365;-1.756;110.040;2023-03-01T10:31:48;102896.72;;;14.29;37.08
64908;BME280;64365;-1.756;110.040;2023-03-01T10:34:18;102896.16;;;14.24;35.73
64908;BME280;64365;-1.756;110.040;2023-03-01T10:36:49;102896.25;;;14.40;38.93
64908;BME280;64365;-1.756;110.040;2023-03-01T10:39:19;102893.00;;;14.46;36.68
64908;BME280;64365;-1.756;110.040;2023-03-01T10:41:56;102880.41;;;14.47;36.33
64908;BME280;64365;-1.756;110.040;2023-03-01T10:44:44;102892.16;;;14.58;35.53
64908;BME280;64365;-1.756;110.040;2023-03-01T10:47:18;102883.78;;;14.60;35.45
64908;BME280;64365;-1.756;110.040;2023-03-01T10:50:17;102892.38;;;14.25;34.67
64908;BME280;64365;-1.756;110.040;2023-03-01T10:52:55;102875.22;;;14.13;36.19
64908;BME280;64365;-1.756;110.040;2023-03-01T10:55:28;102884.81;;;14.14;35.26
64908;BME280;64365;-1.756;110.040;2023-03-01T10:58:08;102872.25;;;13.90;35.29
64908;BME280;64365;-1.756;110.040;2023-03-01T11:00:46;102872.81;;;13.84;35.46
64908;BME280;64365;-1.756;110.040;2023-03-01T11:03:16;102869.13;;;13.76;36.71
64908;BME280;64365;-1.756;110.040;2023-03-01T11:05:52;102859.22;;;13.76;36.92
64908;BME280;64365;-1.756;110.040;2023-03-01T11:08:39;102849.97;;;13.86;37.42
64908;BME280;64365;-1.756;110.040;2023-03-01T11:11:16;102839.06;;;13.79;39.00
64908;BME280;64365;-1.756;110.040;2023-03-01T11:13:52;102833.72;;;13.79;36.74
64908;BME280;64365;-1.756;110.040;2023-03-01T11:16:28;102834.97;;;13.81;40.59
64908;BME280;64365;-1.756;110.040;2023-03-01T11:18:57;102836.81;;;13.93;40.45
64908;BME280;64365;-1.756;110.040;2023-03-01T11:21:25;102834.91;;;14.06;39.79
64908;BME280;64365;-1.756;110.040;2023-03-01T11:23:53;102827.00;;;14.10;37.78
64908;BME280;64365;-1.756;110.040;2023-03-01T11:26:21;102817.19;;;14.02;35.99
64908;BME280;64365;-1.756;110.040;2023-03-01T11:28:50;102823.22;;;13.98;38.43
64908;BME280;64365;-1.756;110.040;2023-03-01T11:31:20;102821.97;;;14.08;36.45
64908;BME280;64365;-1.756;110.040;2023-03-01T11:33:53;102810.31;;;14.01;36.09
64908;BME280;64365;-1.756;110.040;2023-03-01T11:36:28;102817.53;;;14.00;34.78
64908;BME280;64365;-1.756;110.040;2023-03-01T11:39:03;102820.59;;;13.74;35.18
64908;BME280;64365;-1.756;110.040;2023-03-01T11:41:33;102820.69;;;13.65;39.12
64908;BME280;64365;-1.756;110.040;2023-03-01T11:44:05;102826.03;;;13.65;36.77
64908;BME280;64365;-1.756;110.040;2023-03-01T11:46:57;102809.25;;;13.52;35.51
64908;BME280;64365;-1.756;110.040;2023-03-01T11:49:50;102804.00;;;13.43;36.32
64908;BME280;64365;-1.756;110.040;2023-03-01T11:52:28;102807.53;;;13.35;35.99
64908;BME280;64365;-1.756;110.040;2023-03-01T11:55:12;102802.09;;;13.31;35.30
64908;BME280;64365;-1.756;110.040;2023-03-01T11:57:58;102803.19;;;13.30;35.42
64908;BME280;64365;-1.756;110.040;2023-03-01T12:00:54;102809.09;;;13.24;35.79
64908;BME280;64365;-1.756;110.040;2023-03-01T12:03:32;102811.53;;;13.17;36.28
64908;BME280;64365;-1.756;110.040;2023-03-01T12:06:26;102805.84;;;13.18;36.32
64908;BME280;64365;-1.756;110.040;2023-03-01T12:09:06;102802.97;;;13.23;36.48
64908;BME280;64365;-1.756;110.040;2023-03-01T12:11:47;102798.06;;;13.25;36.36
64908;BME280;64365;-1.756;110.040;2023-03-01T12:14:31;102814.97;;;13.29;38.16
64908;BME280;64365;-1.756;110.040;2023-03-01T12:17:20;102788.28;;;13.29;37.18
64908;BME280;64365;-1.756;110.040;2023-03-01T12:20:06;102788.84;;;13.47;37.33
64908;BME280;64365;-1.756;110.040;2023-03-01T12:22:43;102773.41;;;13.53;37.89
64908;BME280;64365;-1.756;110.040;2023-03-01T12:25:21;102786.75;;;13.53;38.93
64908;BME280;64365;-1.756;110.040;2023-03-01T12:28:04;102777.63;;;13.54;36.27
64908;BME280;64365;-1.756;110.040;2023-03-01T12:30:49;102777.72;;;13.70;36.41
64908;BME280;64365;-1.756;110.040;2023-03-01T12:33:27;102772.03;;;13.72;35.77
64908;BME280;64365;-1.756;110.040;2023-03-01T12:36:10;102772.28;;;13.67;35.24
64908;BME280;64365;-1.756;110.040;2023-03-01T12:38:42;102771.38;;;13.62;37.38
64908;BME280;64365;-1.756;110.040;2023-03-01T12:41:35;102766.03;;;13.75;38.10
64908;BME280;64365;-1.756;110.040;2023-03-01T12:44:13;102765.25;;;13.74;36.10
64908;BME280;64365;-1.756;110.040;2023-03-01T12:46:53;102777.16;;;13.77;37.00
64908;BME280;64365;-1.756;110.040;2023-03-01T12:49:31;102753.81;;;13.61;35.24
64908;BME280;64365;-1.756;110.040;2023-03-01T12:52:02;102744.34;;;13.52;35.44
64908;BME280;64365;-1.756;110.040;2023-03-01T12:54:31;102763.03;;;13.52;34.94